sensor_id;sensor_type;location;lat;lon;timestamp;pressure;altitude;pressure_sealevel;temperature;humidity
60974;BME280;46846;51.528;5.076;2023-07-20T00:00:12;100876.31;;;21.32;44.33
60974;BME280;46846;51.528;5.076;2023-07-20T00:02:39;100881.00;;;21.30;44.84
60974;BME280;46846;51.528;5.076;2023-07-20T00:05:05;100882.72;;;21.31;44.64
60974;BME280;46846;51.528;5.076;2023-07-20T00:07:31;100886.88;;;21.24;44.68
60974;BME280;46846;51.528;5.076;2023-07-20T00:09:56;100875.06;;;21.25;44.59
60974;BME280;46846;51.528;5.076;2023-07-20T00:12:22;100882.47;;;21.23;44.48
60974;BME280;46846;51.528;5.076;2023-07-20T00:14:47;100881.72;;;21.21;44.64
60974;BME280;46846;51.528;5.076;2023-07-20T00:17:13;100881.72;;;21.21;44.62
60974;BME280;46846;51.528;5.076;2023-07-20T00:19:38;100874.72;;;21.18;44.46
60974;BME280;46846;51.528;5.076;2023-07-20T00:22:03;100871.28;;;21.16;44.71
60974;BME280;46846;51.528;5.076;2023-07-20T00:24:30;100879.50;;;21.14;44.61
60974;BME280;46846;51.528;5.076;2023-07-20T00:26:56;100871.66;;;21.11;44.83
60974;BME280;46846;51.528;5.076;2023-07-20T00:29:21;100877.16;;;21.10;44.86
60974;BME280;46846;51.528;5.076;2023-07-20T00:31:46;100874.56;;;21.08;44.69
60974;BME280;46846;51.528;5.076;2023-07-20T00:34:12;100871.13;;;21.06;44.77
60974;BME280;46846;51.528;5.076;2023-07-20T00:36:38;100865.94;;;21.03;45.23
60974;BME280;46846;51.528;5.076;2023-07-20T00:39:03;100874.22;;;21.01;44.74
60974;BME280;46846;51.528;5.076;2023-07-20T00:41:28;100873.59;;;20.98;45.21
60974;BME280;46846;51.528;5.076;2023-07-20T00:43:55;100872.81;;;20.96;44.89
60974;BME280;46846;51.528;5.076;2023-07-20T00:46:22;100881.81;;;20.96;44.85
60974;BME280;46846;51.528;5.076;2023-07-20T00:48:48;100885.63;;;20.94;45.00
60974;BME280;46846;51.528;5.076;2023-07-20T00:51:14;100883.03;;;20.92;44.79
60974;BME280;46846;51.528;5.076;2023-07-20T00:53:39;100880.47;;;20.90;45.09
60974;BME280;46846;51.528;5.076;2023-07-20T00:56:05;100880.56;;;20.89;44.79
60974;BME280;46846;51.528;5.076;2023-07-20T00:58:32;100879.72;;;20.88;44.89
60974;BME280;46846;51.528;5.076;2023-07-20T01:00:57;100884.50;;;20.85;45.04
60974;BME280;46846;51.528;5.076;2023-07-20T01:03:23;100872.81;;;20.84;45.17
60974;BME280;46846;51.528;5.076;2023-07-20T01:11:10;100891.44;;;20.76;44.93
60974;BME280;46846;51.528;5.076;2023-07-20T01:13:39;100888.97;;;20.73;45.28
60974;BME280;46846;51.528;5.076;2023-07-20T01:16:05;100902.84;;;20.68;45.12
60974;BME280;46846;51.528;5.076;2023-07-20T01:18:30;100897.56;;;20.67;45.20
60974;BME280;46846;51.528;5.076;2023-07-20T01:20:59;100894.50;;;20.71;44.98
60974;BME280;46846;51.528;5.076;2023-07-20T01:30:03;100890.31;;;20.67;44.85
60974;BME280;46846;51.528;5.076;2023-07-20T01:32:08;100895.19;;;20.62;45.11
60974;BME280;46846;51.528;5.076;2023-07-20T01:34:35;100898.13;;;20.59;45.01
60974;BME280;46846;51.528;5.076;2023-07-20T01:37:02;100894.34;;;20.61;45.22
60974;BME280;46846;51.528;5.076;2023-07-20T01:39:28;100905.06;;;20.63;45.35
60974;BME280;46846;51.528;5.076;2023-07-20T01:41:54;100902.47;;;20.61;45.03
60974;BME280;46846;51.528;5.076;2023-07-20T01:44:20;100903.66;;;20.57;45.13
60974;BME280;46846;51.528;5.076;2023-07-20T01:46:46;100902.06;;;20.55;45.08
60974;BME280;46846;51.528;5.076;2023-07-20T01:49:11;100907.34;;;20.56;44.96
60974;BME280;46846;51.528;5.076;2023-07-20T01:51:36;100910.19;;;20.55;45.42
60974;BME280;46846;51.528;5.076;2023-07-20T01:54:02;100910.75;;;20.47;45.38
60974;BME280;46846;51.528;5.076;2023-07-20T01:56:27;100908.56;;;20.52;45.44
60974;BME280;46846;51.528;5.076;2023-07-20T01:58:53;100908.56;;;20.52;45.27
60974;BME280;46846;51.528;5.076;2023-07-20T02:01:18;100911.72;;;20.46;45.25
60974;BME280;46846;51.528;5.076;2023-07-20T02:03:44;100911.31;;;20.39;45.62
60974;BME280;46846;51.528;5.076;2023-07-20T02:06:09;100915.78;;;20.40;45.39
60974;BME280;46846;51.528;5.076;2023-07-20T02:08:34;100919.78;;;20.34;45.40
60974;BME280;46846;51.528;5.076;2023-07-20T02:11:00;100915.25;;;20.35;45.42
60974;BME280;46846;51.528;5.076;2023-07-20T02:13:25;100911.66;;;20.34;45.60
60974;BME280;46846;51.528;5.076;2023-07-20T02:15:51;100915.59;;;20.30;45.40
60974;BME280;46846;51.528;5.076;2023-07-20T02:18:16;100912.88;;;20.30;45.54
60974;BME280;46846;51.528;5.076;2023-07-20T02:20:42;100921.97;;;20.29;45.70
60974;BME280;46846;51.528;5.076;2023-07-20T02:23:07;100923.16;;;20.25;45.51
60974;BME280;46846;51.528;5.076;2023-07-20T02:25:32;100919.72;;;20.23;45.50
60974;BME280;46846;51.528;5.076;2023-07-20T02:27:58;100919.72;;;20.23;45.61
60974;BME280;46846;51.528;5.076;2023-07-20T02:30:24;100922.19;;;20.26;45.58
60974;BME280;46846;51.528;5.076;2023-07-20T02:32:49;100929.66;;;20.22;45.75
60974;BME280;46846;51.528;5.076;2023-07-20T02:35:15;100926.31;;;20.19;45.66
60974;BME280;46846;51.528;5.076;2023-07-20T02:37:40;100925.22;;;20.21;46.69
60974;BME280;46846;51.528;5.076;2023-07-20T02:40:06;100941.16;;;20.13;45.78
60974;BME280;46846;51.528;5.076;2023-07-20T02:42:33;100932.81;;;20.16;45.69
60974;BME280;46846;51.528;5.076;2023-07-20T02:44:58;100932.16;;;20.13;45.83
60974;BME280;46846;51.528;5.076;2023-07-20T02:47:24;100934.66;;;20.16;45.74
60974;BME280;46846;51.528;5.076;2023-07-20T02:49:49;100931.31;;;20.12;45.87
60974;BME280;46846;51.528;5.076;2023-07-20T02:52:14;100926.25;;;20.07;45.74
60974;BME280;46846;51.528;5.076;2023-07-20T02:54:40;100932.50;;;20.08;45.84
60974;BME280;46846;51.528;5.076;2023-07-20T02:57:05;100940.63;;;20.08;45.85
60974;BME280;46846;51.528;5.076;2023-07-20T02:59:31;100939.88;;;20.06;45.95
60974;BME280;46846;51.528;5.076;2023-07-20T03:01:56;100946.34;;;20.03;45.93
60974;BME280;46846;51.528;5.076;2023-07-20T03:04:23;100940.97;;;20.03;45.83
60974;BME280;46846;51.528;5.076;2023-07-20T03:06:50;100944.63;;;20.02;45.88
60974;BME280;46846;51.528;5.076;2023-07-20T03:09:16;100949.06;;;20.03;45.96
60974;BME280;46846;51.528;5.076;2023-07-20T03:11:41;100943.75;;;20.02;45.97
60974;BME280;46846;51.528;5.076;2023-07-20T03:14:06;100955.69;;;19.99;45.78
60974;BME280;46846;51.528;5.076;2023-07-20T03:16:32;100955.22;;;19.92;46.00
60974;BME280;46846;51.528;5.076;2023-07-20T03:18:59;100958.78;;;19.93;46.01
60974;BME280;46846;51.528;5.076;2023-07-20T03:21:28;100958.78;;;19.93;46.16
60974;BME280;46846;51.528;5.076;2023-07-20T03:23:54;100969.69;;;19.91;46.15
60974;BME280;46846;51.528;5.076;2023-07-20T03:26:20;100965.28;;;19.90;46.15
60974;BME280;46846;51.528;5.076;2023-07-20T03:28:46;100968.94;;;19.89;46.08
60974;BME280;46846;51.528;5.076;2023-07-20T03:31:11;100966.78;;;19.81;46.25
60974;BME280;46846;51.528;5.076;2023-07-20T03:33:36;100964.09;;;19.81;46.18
60974;BME280;46846;51.528;5.076;2023-07-20T03:36:02;100963.09;;;19.83;45.92
60974;BME280;46846;51.528;5.076;2023-07-20T03:38:28;100964.97;;;19.82;46.06
60974;BME280;46846;51.528;5.076;2023-07-20T03:40:57;100968.50;;;19.83;46.06
60974;BME280;46846;51.528;5.076;2023-07-20T03:43:24;100965.28;;;19.77;46.19
60974;BME280;46846;51.528;5.076;2023-07-20T03:45:51;100967.13;;;19.77;46.27
60974;BME280;46846;51.528;5.076;2023-07-20T03:48:18;100960.88;;;19.76;46.09
60974;BME280;46846;51.528;5.076;2023-07-20T03:50:47;100970.91;;;19.74;46.08
60974;BME280;46846;51.528;5.076;2023-07-20T03:53:14;100966.38;;;19.75;46.66
60974;BME280;46846;51.528;5.076;2023-07-20T03:55:42;100967.44;;;19.72;46.03
60974;BME280;46846;51.528;5.076;2023-07-20T03:58:09;100967.69;;;19.69;46.25
60974;BME280;46846;51.528;5.076;2023-07-20T04:00:34;100970.81;;;19.63;46.23
60974;BME280;46846;51.528;5.076;2023-07-20T04:03:00;100965.41;;;19.63;46.20
60974;BME280;46846;51.528;5.076;2023-07-20T04:05:26;100974.34;;;19.63;46.26
60974;BME280;46846;51.528;5.076;2023-07-20T04:07:52;100976.22;;;19.63;46.13
60974;BME280;46846;51.528;5.076;2023-07-20T04:10:20;100973.72;;;19.60;45.94
60974;BME280;46846;51.528;5.076;2023-07-20T04:12:45;100979.34;;;19.57;46.06
60974;BME280;46846;51.528;5.076;2023-07-20T04:15:13;100985.59;;;19.57;46.38
60974;BME280;46846;51.528;5.076;2023-07-20T04:17:38;100986.56;;;19.56;46.13
60974;BME280;46846;51.528;5.076;2023-07-20T04:20:04;100979.34;;;19.57;45.97
60974;BME280;46846;51.528;5.076;2023-07-20T04:22:31;100979.34;;;19.57;46.45
60974;BME280;46846;51.528;5.076;2023-07-20T04:24:56;100974.13;;;19.53;46.28
60974;BME280;46846;51.528;5.076;2023-07-20T04:27:22;100971.44;;;19.53;46.52
60974;BME280;46846;51.528;5.076;2023-07-20T04:29:47;100972.66;;;19.49;46.19
60974;BME280;46846;51.528;5.076;2023-07-20T04:32:12;100970.91;;;19.48;46.19
60974;BME280;46846;51.528;5.076;2023-07-20T04:34:38;100969.19;;;19.47;46.36
60974;BME280;46846;51.528;5.076;2023-07-20T04:37:04;100976.50;;;19.45;46.32
60974;BME280;46846;51.528;5.076;2023-07-20T04:39:30;100969.63;;;19.41;46.36
60974;BME280;46846;51.528;5.076;2023-07-20T04:41:56;100969.63;;;19.41;46.35
60974;BME280;46846;51.528;5.076;2023-07-20T04:44:21;100980.41;;;19.41;46.57
60974;BME280;46846;51.528;5.076;2023-07-20T04:46:47;100984.09;;;19.40;46.34
60974;BME280;46846;51.528;5.076;2023-07-20T04:49:12;100986.66;;;19.42;46.52
60974;BME280;46846;51.528;5.076;2023-07-20T04:51:38;100980.53;;;19.39;46.22
60974;BME280;46846;51.528;5.076;2023-07-20T04:54:04;100978.88;;;19.37;47.05
60974;BME280;46846;51.528;5.076;2023-07-20T04:56:29;100976.53;;;19.32;46.39
60974;BME280;46846;51.528;5.076;2023-07-20T04:58:55;100971.13;;;19.32;46.46
60974;BME280;46846;51.528;5.076;2023-07-20T05:01:20;100979.13;;;19.34;46.37
60974;BME280;46846;51.528;5.076;2023-07-20T05:03:46;100974.78;;;19.31;46.28
60974;BME280;46846;51.528;5.076;2023-07-20T05:06:11;100982.97;;;19.30;46.32
60974;BME280;46846;51.528;5.076;2023-07-20T05:08:37;100985.69;;;19.30;46.26
60974;BME280;46846;51.528;5.076;2023-07-20T05:11:04;100989.16;;;19.32;46.31
60974;BME280;46846;51.528;5.076;2023-07-20T05:13:29;100984.06;;;19.27;46.79
60974;BME280;46846;51.528;5.076;2023-07-20T05:15:55;100990.34;;;19.27;46.70
60974;BME280;46846;51.528;5.076;2023-07-20T05:18:20;100989.44;;;19.27;47.16
60974;BME280;46846;51.528;5.076;2023-07-20T05:20:47;100992.28;;;19.25;47.47
60974;BME280;46846;51.528;5.076;2023-07-20T05:23:12;100994.97;;;19.25;47.45
60974;BME280;46846;51.528;5.076;2023-07-20T05:25:38;101002.75;;;19.30;47.11
60974;BME280;46846;51.528;5.076;2023-07-20T05:28:03;101002.00;;;19.28;46.85
60974;BME280;46846;51.528;5.076;2023-07-20T05:30:29;101001.88;;;19.30;46.75
60974;BME280;46846;51.528;5.076;2023-07-20T05:32:54;101006.19;;;19.32;47.25
60974;BME280;46846;51.528;5.076;2023-07-20T05:35:20;101002.84;;;19.29;47.19
60974;BME280;46846;51.528;5.076;2023-07-20T05:37:46;101003.50;;;19.32;46.59
60974;BME280;46846;51.528;5.076;2023-07-20T05:40:12;101001.53;;;19.34;46.79
60974;BME280;46846;51.528;5.076;2023-07-20T05:42:41;100998.75;;;19.36;46.68
60974;BME280;46846;51.528;5.076;2023-07-20T05:45:06;101003.97;;;19.39;46.76
60974;BME280;46846;51.528;5.076;2023-07-20T05:47:32;100997.91;;;19.35;46.49
60974;BME280;46846;51.528;5.076;2023-07-20T05:49:57;100999.41;;;19.39;46.60
60974;BME280;46846;51.528;5.076;2023-07-20T05:52:23;100998.75;;;19.36;46.61
60974;BME280;46846;51.528;5.076;2023-07-20T05:54:48;100998.56;;;19.39;46.63
60974;BME280;46846;51.528;5.076;2023-07-20T05:57:14;100992.94;;;19.42;46.58
60974;BME280;46846;51.528;5.076;2023-07-20T05:59:39;100994.47;;;19.46;46.72
60974;BME280;46846;51.528;5.076;2023-07-20T06:02:09;100999.84;;;19.46;46.63
60974;BME280;46846;51.528;5.076;2023-07-20T06:04:34;101002.00;;;19.54;48.43
60974;BME280;46846;51.528;5.076;2023-07-20T06:06:59;100989.38;;;19.54;47.65
60974;BME280;46846;51.528;5.076;2023-07-20T06:09:25;100996.94;;;19.49;47.62
60974;BME280;46846;51.528;5.076;2023-07-20T06:11:52;101005.59;;;19.54;47.66
60974;BME280;46846;51.528;5.076;2023-07-20T06:14:18;100998.22;;;19.57;47.25
60974;BME280;46846;51.528;5.076;2023-07-20T06:16:44;101010.31;;;19.64;47.14
60974;BME280;46846;51.528;5.076;2023-07-20T06:19:09;101005.91;;;19.63;47.26
60974;BME280;46846;51.528;5.076;2023-07-20T06:21:37;101016.69;;;19.63;47.27
60974;BME280;46846;51.528;5.076;2023-07-20T06:24:03;101013.03;;;19.64;47.06
60974;BME280;46846;51.528;5.076;2023-07-20T06:26:28;101018.63;;;19.61;47.02
60974;BME280;46846;51.528;5.076;2023-07-20T06:28:55;101013.13;;;19.62;47.12
60974;BME280;46846;51.528;5.076;2023-07-20T06:31:21;101017.53;;;19.63;46.69
60974;BME280;46846;51.528;5.076;2023-07-20T06:33:46;101010.41;;;19.62;46.89
60974;BME280;46846;51.528;5.076;2023-07-20T06:36:12;101020.91;;;19.67;46.92
60974;BME280;46846;51.528;5.076;2023-07-20T06:38:37;101018.00;;;19.70;46.90
60974;BME280;46846;51.528;5.076;2023-07-20T06:41:02;101013.25;;;19.74;46.89
60974;BME280;46846;51.528;5.076;2023-07-20T06:43:28;101011.38;;;19.74;46.97
60974;BME280;46846;51.528;5.076;2023-07-20T06:45:53;101015.63;;;19.78;46.87
60974;BME280;46846;51.528;5.076;2023-07-20T06:48:19;101013.66;;;19.80;47.09
60974;BME280;46846;51.528;5.076;2023-07-20T06:50:45;101003.41;;;19.86;47.22
60974;BME280;46846;51.528;5.076;2023-07-20T06:53:11;101009.78;;;19.85;47.09
60974;BME280;46846;51.528;5.076;2023-07-20T06:55:36;101016.03;;;19.85;46.89
60974;BME280;46846;51.528;5.076;2023-07-20T06:58:01;101015.59;;;19.91;47.17
60974;BME280;46846;51.528;5.076;2023-07-20T07:00:27;101018.09;;;19.94;47.04
60974;BME280;46846;51.528;5.076;2023-07-20T07:02:52;101020.16;;;20.04;46.98
60974;BME280;46846;51.528;5.076;2023-07-20T07:05:18;101026.66;;;20.01;46.98
60974;BME280;46846;51.528;5.076;2023-07-20T07:07:43;101021.78;;;20.06;47.04
60974;BME280;46846;51.528;5.076;2023-07-20T07:10:09;101024.16;;;20.11;46.95
60974;BME280;46846;51.528;5.076;2023-07-20T07:12:34;101021.56;;;20.10;47.09
60974;BME280;46846;51.528;5.076;2023-07-20T07:15:01;101018.41;;;20.16;47.00
60974;BME280;46846;51.528;5.076;2023-07-20T07:17:27;101021.75;;;20.19;47.00
60974;BME280;46846;51.528;5.076;2023-07-20T07:19:53;101025.09;;;20.23;47.01
60974;BME280;46846;51.528;5.076;2023-07-20T07:22:21;101020.44;;;20.25;47.05
60974;BME280;46846;51.528;5.076;2023-07-20T07:24:47;101030.06;;;20.29;47.10
60974;BME280;46846;51.528;5.076;2023-07-20T07:27:13;101025.16;;;20.34;47.07
60974;BME280;46846;51.528;5.076;2023-07-20T07:29:41;101029.28;;;20.40;46.98
60974;BME280;46846;51.528;5.076;2023-07-20T07:32:07;101030.66;;;20.46;46.59
60974;BME280;46846;51.528;5.076;2023-07-20T07:34:32;101035.81;;;20.49;47.03
60974;BME280;46846;51.528;5.076;2023-07-20T07:36:59;101032.03;;;20.52;46.95
60974;BME280;46846;51.528;5.076;2023-07-20T07:39:25;101024.81;;;20.52;47.07
60974;BME280;46846;51.528;5.076;2023-07-20T07:41:50;101029.13;;;20.55;47.09
60974;BME280;46846;51.528;5.076;2023-07-20T07:44:17;101034.06;;;20.61;47.17
60974;BME280;46846;51.528;5.076;2023-07-20T07:46:43;101030.56;;;20.72;46.72
60974;BME280;46846;51.528;5.076;2023-07-20T07:49:08;101038.66;;;20.72;47.00
60974;BME280;46846;51.528;5.076;2023-07-20T07:51:33;101042.00;;;20.75;46.94
60974;BME280;46846;51.528;5.076;2023-07-20T07:53:59;101041.91;;;20.77;47.07
60974;BME280;46846;51.528;5.076;2023-07-20T07:56:24;101040.69;;;20.81;46.96
60974;BME280;46846;51.528;5.076;2023-07-20T07:58:50;101045.78;;;20.86;47.07
60974;BME280;46846;51.528;5.076;2023-07-20T08:01:17;101044.56;;;20.90;46.84
60974;BME280;46846;51.528;5.076;2023-07-20T08:03:44;101047.16;;;20.92;46.99
60974;BME280;46846;51.528;5.076;2023-07-20T08:06:11;101038.69;;;20.96;46.90
60974;BME280;46846;51.528;5.076;2023-07-20T08:08:36;101040.53;;;20.96;47.10
60974;BME280;46846;51.528;5.076;2023-07-20T08:11:02;101045.13;;;21.07;46.96
60974;BME280;46846;51.528;5.076;2023-07-20T08:13:27;101047.50;;;21.11;46.81
60974;BME280;46846;51.528;5.076;2023-07-20T08:15:53;101047.00;;;21.17;46.75
60974;BME280;46846;51.528;5.076;2023-07-20T08:18:18;101049.16;;;21.25;46.92
60974;BME280;46846;51.528;5.076;2023-07-20T08:20:44;101048.06;;;21.28;46.32
60974;BME280;46846;51.528;5.076;2023-07-20T08:23:10;101043.75;;;21.37;46.48
60974;BME280;46846;51.528;5.076;2023-07-20T08:25:39;101043.28;;;21.43;46.55
60974;BME280;46846;51.528;5.076;2023-07-20T08:28:09;101041.97;;;21.49;46.33
60974;BME280;46846;51.528;5.076;2023-07-20T08:30:46;101040.72;;;21.53;46.32
60974;BME280;46846;51.528;5.076;2023-07-20T08:33:16;101043.69;;;21.61;44.89
60974;BME280;46846;51.528;5.076;2023-07-20T08:35:44;101040.50;;;21.67;45.71
60974;BME280;46846;51.528;5.076;2023-07-20T08:38:10;101036.38;;;21.75;45.86
60974;BME280;46846;51.528;5.076;2023-07-20T08:40:43;101032.31;;;21.80;46.11
60974;BME280;46846;51.528;5.076;2023-07-20T08:43:14;101041.81;;;21.86;46.10
60974;BME280;46846;51.528;5.076;2023-07-20T08:45:41;101033.91;;;21.83;45.25
60974;BME280;46846;51.528;5.076;2023-07-20T08:48:08;101030.97;;;21.86;44.79
60974;BME280;46846;51.528;5.076;2023-07-20T08:50:34;101033.06;;;21.94;44.43
60974;BME280;46846;51.528;5.076;2023-07-20T08:53:00;101035.50;;;21.97;44.91
60974;BME280;46846;51.528;5.076;2023-07-20T08:55:27;101031.47;;;22.03;45.25
60974;BME280;46846;51.528;5.076;2023-07-20T08:57:57;101033.53;;;22.10;44.97
60974;BME280;46846;51.528;5.076;2023-07-20T09:00:23;101036.75;;;22.16;45.03
60974;BME280;46846;51.528;5.076;2023-07-20T09:02:58;101035.38;;;22.21;45.37
60974;BME280;46846;51.528;5.076;2023-07-20T09:05:25;101046.00;;;22.24;44.84
60974;BME280;46846;51.528;5.076;2023-07-20T09:07:52;101042.66;;;22.32;44.58
60974;BME280;46846;51.528;5.076;2023-07-20T09:10:21;101042.28;;;22.37;44.81
60974;BME280;46846;51.528;5.076;2023-07-20T09:12:47;101040.06;;;22.42;45.40
60974;BME280;46846;51.528;5.076;2023-07-20T09:15:12;101039.56;;;22.48;45.37
60974;BME280;46846;51.528;5.076;2023-07-20T09:17:38;101032.66;;;22.56;45.20
60974;BME280;46846;51.528;5.076;2023-07-20T09:20:07;101038.81;;;22.58;45.30
60974;BME280;46846;51.528;5.076;2023-07-20T09:22:37;101035.34;;;22.67;44.00
60974;BME280;46846;51.528;5.076;2023-07-20T09:25:18;101033.13;;;22.72;45.14
60974;BME280;46846;51.528;5.076;2023-07-20T09:27:48;101034.59;;;22.76;44.85
60974;BME280;46846;51.528;5.076;2023-07-20T09:30:15;101029.63;;;22.81;45.09
60974;BME280;46846;51.528;5.076;2023-07-20T09:32:46;101023.19;;;22.83;44.93
60974;BME280;46846;51.528;5.076;2023-07-20T09:35:14;101033.69;;;22.87;45.00
60974;BME280;46846;51.528;5.076;2023-07-20T09:37:40;101015.44;;;22.89;44.90
60974;BME280;46846;51.528;5.076;2023-07-20T09:40:07;101015.91;;;22.94;44.75
60974;BME280;46846;51.528;5.076;2023-07-20T09:42:35;101019.22;;;22.98;44.88
60974;BME280;46846;51.528;5.076;2023-07-20T09:45:02;101019.66;;;23.03;44.68
60974;BME280;46846;51.528;5.076;2023-07-20T09:47:27;101023.09;;;23.05;44.48
60974;BME280;46846;51.528;5.076;2023-07-20T09:50:00;101027.03;;;23.13;44.53
60974;BME280;46846;51.528;5.076;2023-07-20T09:52:25;101011.50;;;23.15;44.50
60974;BME280;46846;51.528;5.076;2023-07-20T09:54:51;101014.94;;;23.17;44.44
60974;BME280;46846;51.528;5.076;2023-07-20T09:57:17;101008.84;;;23.25;42.29
60974;BME280;46846;51.528;5.076;2023-07-20T09:59:43;101011.91;;;23.31;44.26
60974;BME280;46846;51.528;5.076;2023-07-20T10:02:21;101010.09;;;23.32;44.37
60974;BME280;46846;51.528;5.076;2023-07-20T10:04:53;101013.00;;;23.40;44.01
60974;BME280;46846;51.528;5.076;2023-07-20T10:07:19;101013.59;;;23.44;43.95
60974;BME280;46846;51.528;5.076;2023-07-20T10:09:48;101012.59;;;23.45;43.81
60974;BME280;46846;51.528;5.076;2023-07-20T10:12:15;100999.84;;;23.45;44.01
60974;BME280;46846;51.528;5.076;2023-07-20T10:14:47;101003.44;;;23.46;44.16
60974;BME280;46846;51.528;5.076;2023-07-20T10:17:16;101006.88;;;23.48;44.13
60974;BME280;46846;51.528;5.076;2023-07-20T10:19:47;101005.88;;;23.49;43.95
60974;BME280;46846;51.528;5.076;2023-07-20T10:22:34;101010.19;;;23.52;43.90
60974;BME280;46846;51.528;5.076;2023-07-20T10:25:01;101008.94;;;23.56;43.88
60974;BME280;46846;51.528;5.076;2023-07-20T10:27:27;101003.09;;;23.60;43.87
60974;BME280;46846;51.528;5.076;2023-07-20T10:29:53;100995.94;;;23.59;43.54
60974;BME280;46846;51.528;5.076;2023-07-20T10:32:20;101000.25;;;23.62;43.28
60974;BME280;46846;51.528;5.076;2023-07-20T10:34:56;101000.69;;;23.67;43.66
60974;BME280;46846;51.528;5.076;2023-07-20T10:37:46;101010.72;;;23.67;43.65
60974;BME280;46846;51.528;5.076;2023-07-20T10:42:50;100999.31;;;23.73;43.36
60974;BME280;46846;51.528;5.076;2023-07-20T10:45:17;100992.88;;;23.74;43.27
60974;BME280;46846;51.528;5.076;2023-07-20T10:47:46;100991.59;;;23.78;43.26
60974;BME280;46846;51.528;5.076;2023-07-20T10:50:12;100988.56;;;23.71;43.40
60974;BME280;46846;51.528;5.076;2023-07-20T10:52:39;100988.88;;;23.78;43.20
60974;BME280;46846;51.528;5.076;2023-07-20T10:55:14;100983.31;;;23.80;43.05
60974;BME280;46846;51.528;5.076;2023-07-20T10:57:40;100982.91;;;23.84;43.07
60974;BME280;46846;51.528;5.076;2023-07-20T11:00:10;100987.78;;;23.90;42.54
60974;BME280;46846;51.528;5.076;2023-07-20T11:02:46;100984.38;;;23.88;42.94
60974;BME280;46846;51.528;5.076;2023-07-20T11:05:32;100977.63;;;23.93;42.70
60974;BME280;46846;51.528;5.076;2023-07-20T11:07:58;100974.78;;;23.94;42.29
60974;BME280;46846;51.528;5.076;2023-07-20T11:10:23;100973.91;;;23.94;42.79
60974;BME280;46846;51.528;5.076;2023-07-20T11:13:15;100976.78;;;23.92;42.99
60974;BME280;46846;51.528;5.076;2023-07-20T11:15:48;100973.66;;;23.97;42.84
60974;BME280;46846;51.528;5.076;2023-07-20T11:18:26;100975.97;;;24.01;42.79
60974;BME280;46846;51.528;5.076;2023-07-20T11:20:52;100971.13;;;24.05;41.97
60974;BME280;46846;51.528;5.076;2023-07-20T11:23:19;100972.13;;;24.04;42.88
60974;BME280;46846;51.528;5.076;2023-07-20T11:25:45;100970.59;;;24.11;42.40
60974;BME280;46846;51.528;5.076;2023-07-20T11:28:11;100970.44;;;24.13;42.29
60974;BME280;46846;51.528;5.076;2023-07-20T11:30:37;100964.88;;;24.14;42.31
60974;BME280;46846;51.528;5.076;2023-07-20T11:33:04;100967.47;;;24.16;42.54
60974;BME280;46846;51.528;5.076;2023-07-20T11:35:30;100957.59;;;24.15;42.65
60974;BME280;46846;51.528;5.076;2023-07-20T11:37:56;100964.88;;;24.14;42.22
60974;BME280;46846;51.528;5.076;2023-07-20T11:40:22;100962.59;;;24.20;42.54
60974;BME280;46846;51.528;5.076;2023-07-20T11:42:49;100964.19;;;24.22;42.68
60974;BME280;46846;51.528;5.076;2023-07-20T11:45:16;100968.63;;;24.23;42.78
60974;BME280;46846;51.528;5.076;2023-07-20T11:47:43;100959.16;;;24.27;41.35
60974;BME280;46846;51.528;5.076;2023-07-20T11:50:09;100958.91;;;24.30;39.36
60974;BME280;46846;51.528;5.076;2023-07-20T11:52:35;100954.47;;;24.29;42.01
60974;BME280;46846;51.528;5.076;2023-07-20T11:55:00;100958.03;;;24.30;42.45
60974;BME280;46846;51.528;5.076;2023-07-20T11:57:26;100956.75;;;24.34;41.47
60974;BME280;46846;51.528;5.076;2023-07-20T11:59:56;100958.59;;;24.34;42.25
60974;BME280;46846;51.528;5.076;2023-07-20T12:02:22;100954.88;;;24.35;41.82
60974;BME280;46846;51.528;5.076;2023-07-20T12:04:50;100943.44;;;24.31;41.96
60974;BME280;46846;51.528;5.076;2023-07-20T12:07:16;100951.59;;;24.31;42.14
60974;BME280;46846;51.528;5.076;2023-07-20T12:09:42;100943.16;;;24.34;41.81
60974;BME280;46846;51.528;5.076;2023-07-20T12:12:10;100946.28;;;24.39;42.03
60974;BME280;46846;51.528;5.076;2023-07-20T12:14:38;100946.03;;;24.42;41.71
60974;BME280;46846;51.528;5.076;2023-07-20T12:17:04;100950.75;;;24.40;41.47
60974;BME280;46846;51.528;5.076;2023-07-20T12:19:29;100937.56;;;24.36;41.92
60974;BME280;46846;51.528;5.076;2023-07-20T12:21:57;100949.31;;;24.36;41.80
60974;BME280;46846;51.528;5.076;2023-07-20T12:24:24;100948.75;;;24.42;41.80
60974;BME280;46846;51.528;5.076;2023-07-20T12:26:56;100948.63;;;24.44;41.84
60974;BME280;46846;51.528;5.076;2023-07-20T12:29:22;100948.88;;;24.41;41.82
60974;BME280;46846;51.528;5.076;2023-07-20T12:31:47;100958.75;;;24.42;41.58
60974;BME280;46846;51.528;5.076;2023-07-20T12:34:13;100953.06;;;24.45;41.58
60974;BME280;46846;51.528;5.076;2023-07-20T12:36:38;100948.63;;;24.44;41.66
60974;BME280;46846;51.528;5.076;2023-07-20T12:39:04;100947.88;;;24.42;41.54
60974;BME280;46846;51.528;5.076;2023-07-20T12:41:30;100945.16;;;24.42;41.78
60974;BME280;46846;51.528;5.076;2023-07-20T12:43:56;100947.63;;;24.45;41.63
60974;BME280;46846;51.528;5.076;2023-07-20T12:46:23;100948.75;;;24.42;41.92
60974;BME280;46846;51.528;5.076;2023-07-20T12:48:49;100945.75;;;24.46;41.87
60974;BME280;46846;51.528;5.076;2023-07-20T12:51:14;100942.88;;;24.47;41.69
60974;BME280;46846;51.528;5.076;2023-07-20T12:53:40;100941.44;;;24.43;41.70
60974;BME280;46846;51.528;5.076;2023-07-20T12:56:05;100936.75;;;24.45;41.57
60974;BME280;46846;51.528;5.076;2023-07-20T12:58:31;100934.72;;;24.47;41.91
60974;BME280;46846;51.528;5.076;2023-07-20T13:00:56;100932.00;;;24.47;41.68